Time;durP1;ratioP1;P1;durP2;ratioP2;P2;SDS_P1;SDS_P2;PMS_P1;PMS_P2;Temp;Humidity;BMP_temperature;BMP_pressure;BME280_temperature;BME280_humidity;BME280_pressure;Samples;Min_cycle;Max_cycle;Signal;HPM_P1;HPM_P2
2022/01/10 00:00:38;;;;;;;16.58;6.55;;;2.50;99.90;;;;;;5044792;28;20052;-68
2022/01/10 00:03:05;;;;;;;20.30;7.25;;;2.50;99.90;;;;;;5043821;28;20144;-67
2022/01/10 00:05:32;;;;;;;25.75;7.97;;;2.50;99.90;;;;;;5033535;28;20045;-68
2022/01/10 00:08:02;;;;;;;17.15;7.10;;;2.50;99.90;;;;;;5043606;28;20052;-68
2022/01/10 00:10:29;;;;;;;19.98;7.97;;;2.40;99.90;;;;;;5043233;28;20053;-67
2022/01/10 00:12:56;;;;;;;20.02;8.68;;;2.40;99.90;;;;;;5044501;28;20057;-67
2022/01/10 00:15:23;;;;;;;19.55;8.07;;;2.40;99.90;;;;;;5043923;28;20126;-68
2022/01/10 00:17:49;;;;;;;23.15;7.63;;;2.40;99.90;;;;;;5045707;28;20083;-67
2022/01/10 00:20:17;;;;;;;23.73;8.18;;;2.40;99.90;;;;;;5046704;28;20084;-67
2022/01/10 00:22:46;;;;;;;24.27;7.82;;;2.40;99.90;;;;;;5047509;28;20484;-67
2022/01/10 00:25:17;;;;;;;17.92;8.52;;;2.40;99.90;;;;;;5047557;28;20049;-70
2022/01/10 00:27:44;;;;;;;18.30;7.60;;;2.40;99.90;;;;;;5047955;28;20098;-67
2022/01/10 00:30:11;;;;;;;15.20;7.88;;;2.40;99.90;;;;;;5047356;28;20128;-68
2022/01/10 00:32:38;;;;;;;17.45;8.10;;;2.40;99.90;;;;;;5046973;28;20106;-68
2022/01/10 00:35:06;;;;;;;31.35;8.80;;;2.30;99.90;;;;;;5047564;28;20068;-66
2022/01/10 00:37:34;;;;;;;21.67;7.13;;;2.40;99.90;;;;;;5047115;28;20348;-68
2022/01/10 00:40:01;;;;;;;27.05;8.63;;;2.40;99.90;;;;;;5047179;28;20171;-67
2022/01/10 00:42:29;;;;;;;19.98;7.47;;;2.40;99.90;;;;;;5047237;28;20247;-67
2022/01/10 00:45:00;;;;;;;17.42;6.60;;;2.40;99.90;;;;;;5047916;28;20037;-66
2022/01/10 00:47:27;;;;;;;17.80;6.28;;;2.30;99.90;;;;;;5048142;28;20111;-66
2022/01/10 00:49:54;;;;;;;18.05;6.72;;;2.30;99.90;;;;;;5047351;28;20041;-67
2022/01/10 00:52:21;;;;;;;23.02;8.15;;;2.30;99.90;;;;;;5048341;28;20053;-66
2022/01/10 00:54:48;;;;;;;16.08;6.07;;;2.20;99.90;;;;;;5052333;28;20048;-67
2022/01/10 00:57:15;;;;;;;27.58;6.88;;;2.30;99.90;;;;;;5052072;28;20071;-67
2022/01/10 00:59:42;;;;;;;17.08;5.97;;;2.20;99.90;;;;;;5052877;28;20444;-66
2022/01/10 01:02:08;;;;;;;17.17;6.40;;;2.20;99.90;;;;;;5052715;28;20492;-67
2022/01/10 01:04:35;;;;;;;16.17;6.50;;;2.20;99.90;;;;;;5051226;28;20047;-66
2022/01/10 01:07:02;;;;;;;21.48;6.55;;;2.10;99.90;;;;;;5051107;28;20136;-66
2022/01/10 01:09:31;;;;;;;16.45;6.28;;;2.10;99.90;;;;;;5051010;28;20049;-66
2022/01/10 01:14:38;;;;;;;15.73;6.13;;;2.10;99.90;;;;;;5050865;28;20045;-66
2022/01/10 01:17:58;;;;;;;13.38;5.55;;;2.10;99.90;;;;;;5050395;28;20056;-66
2022/01/10 01:25:10;;;;;;;17.05;6.40;;;1.90;99.90;;;;;;5049919;28;20044;-66
2022/01/10 01:27:38;;;;;;;24.95;8.40;;;2.00;99.90;;;;;;5049617;28;20076;-65
2022/01/10 01:30:05;;;;;;;18.33;7.30;;;1.90;99.90;;;;;;5048773;28;20073;-66
2022/01/10 01:32:32;;;;;;;19.55;6.30;;;1.90;99.90;;;;;;5049478;28;20527;-68
2022/01/10 01:35:05;;;;;;;22.85;6.35;;;1.90;99.90;;;;;;5050410;28;20045;-67
2022/01/10 01:37:31;;;;;;;18.67;6.60;;;1.90;99.90;;;;;;5047794;28;20049;-68
2022/01/10 01:39:59;;;;;;;24.50;5.80;;;1.90;99.90;;;;;;5049415;28;20072;-67
2022/01/10 01:42:35;;;;;;;17.40;6.00;;;1.90;99.90;;;;;;5050528;28;20040;-67
2022/01/10 01:45:03;;;;;;;17.73;5.95;;;1.80;99.90;;;;;;5051469;28;20515;-67
2022/01/10 01:47:30;;;;;;;23.20;6.90;;;1.80;99.90;;;;;;5050978;28;20048;-67
2022/01/10 01:49:58;;;;;;;13.23;5.88;;;1.80;99.90;;;;;;5051783;28;20072;-67
2022/01/10 01:52:25;;;;;;;32.00;8.32;;;1.80;99.90;;;;;;5052053;28;20069;-67
2022/01/10 01:54:52;;;;;;;19.50;7.05;;;1.80;99.90;;;;;;5018887;28;20053;-68
2022/01/10 01:57:19;;;;;;;16.58;5.38;;;1.80;99.90;;;;;;5052837;28;20079;-68
2022/01/10 01:59:46;;;;;;;20.25;6.82;;;1.80;99.90;;;;;;5051500;28;20077;-67
2022/01/10 02:02:12;;;;;;;21.27;6.32;;;1.80;99.90;;;;;;5052087;28;20079;-68
2022/01/10 02:04:39;;;;;;;17.08;6.07;;;1.80;99.90;;;;;;5051440;28;20511;-67
2022/01/10 02:07:07;;;;;;;19.42;6.53;;;1.80;99.90;;;;;;5051360;28;20049;-65
2022/01/10 02:09:33;;;;;;;19.92;7.32;;;1.70;99.90;;;;;;5050713;28;20511;-66
2022/01/10 02:12:00;;;;;;;27.63;5.57;;;1.80;99.90;;;;;;5049985;28;20557;-66
2022/01/10 02:14:27;;;;;;;15.15;5.10;;;1.70;99.90;;;;;;5050038;28;20098;-68
2022/01/10 02:16:56;;;;;;;17.25;4.97;;;1.70;99.90;;;;;;5047630;28;20049;-68
2022/01/10 02:19:26;;;;;;;19.80;5.70;;;1.70;99.90;;;;;;5049220;28;20584;-66
2022/01/10 02:21:53;;;;;;;13.23;5.28;;;1.70;99.90;;;;;;5029565;28;20089;-66
2022/01/10 02:24:20;;;;;;;18.20;5.57;;;1.70;99.90;;;;;;5047811;28;20063;-66
2022/01/10 02:26:48;;;;;;;14.57;5.22;;;1.70;99.90;;;;;;5049885;28;20088;-67
2022/01/10 02:29:15;;;;;;;19.90;7.47;;;1.80;99.90;;;;;;5049059;28;20045;-66
2022/01/10 02:31:42;;;;;;;13.48;6.20;;;1.70;99.90;;;;;;5049308;28;20466;-67
2022/01/10 02:34:09;;;;;;;14.60;4.78;;;1.70;99.90;;;;;;5048918;28;20060;-67
2022/01/10 02:36:36;;;;;;;15.55;6.43;;;1.70;99.90;;;;;;5049223;28;20083;-66
2022/01/10 02:39:07;;;;;;;11.23;4.60;;;1.70;99.90;;;;;;5048876;28;20044;-67
2022/01/10 02:41:35;;;;;;;19.73;5.38;;;1.70;99.90;;;;;;5048481;28;20045;-66
2022/01/10 02:44:04;;;;;;;13.85;5.15;;;1.70;99.90;;;;;;5048842;28;20103;-68
2022/01/10 02:46:35;;;;;;;13.15;5.10;;;1.70;99.90;;;;;;5047916;28;20080;-67
2022/01/10 02:49:14;;;;;;;19.00;4.60;;;1.70;99.90;;;;;;5048473;28;20083;-67
2022/01/10 02:51:41;;;;;;;12.07;4.88;;;1.60;99.90;;;;;;5048750;28;20095;-67
2022/01/10 02:54:08;;;;;;;14.70;4.70;;;1.60;99.90;;;;;;5047327;28;20072;-67
2022/01/10 02:56:44;;;;;;;19.95;3.97;;;1.60;99.90;;;;;;5048445;28;20497;-67
2022/01/10 02:59:11;;;;;;;11.45;3.88;;;1.70;99.90;;;;;;5048516;28;20041;-66
2022/01/10 03:01:38;;;;;;;11.32;4.55;;;1.90;99.90;;;;;;5048415;28;20087;-66
2022/01/10 03:04:05;;;;;;;12.82;4.18;;;1.80;99.90;;;;;;5048377;28;20049;-65
2022/01/10 03:06:32;;;;;;;12.52;4.20;;;1.80;99.90;;;;;;5048271;28;20080;-66
2022/01/10 03:09:05;;;;;;;14.00;4.53;;;1.70;99.90;;;;;;5048438;28;20075;-66
2022/01/10 03:11:35;;;;;;;12.57;4.63;;;1.70;99.90;;;;;;5048054;28;20118;-66
2022/01/10 03:14:02;;;;;;;9.75;4.90;;;1.70;99.90;;;;;;5048259;28;20071;-66
2022/01/10 03:16:29;;;;;;;12.40;4.47;;;1.80;99.90;;;;;;5047438;28;20111;-66
2022/01/10 03:18:56;;;;;;;9.32;4.00;;;1.80;99.90;;;;;;5048384;28;20124;-67
2022/01/10 03:21:23;;;;;;;15.27;5.03;;;1.90;99.90;;;;;;5047740;28;20049;-67
2022/01/10 03:23:53;;;;;;;15.07;5.38;;;1.90;99.90;;;;;;5048581;28;20059;-67
2022/01/10 03:26:20;;;;;;;17.90;5.07;;;1.90;99.90;;;;;;5048008;28;20554;-66
2022/01/10 03:28:47;;;;;;;14.45;5.00;;;1.90;99.90;;;;;;5048355;28;20053;-67
2022/01/10 03:31:13;;;;;;;19.33;4.60;;;1.90;99.90;;;;;;5047398;28;20041;-67
2022/01/10 03:33:40;;;;;;;13.30;5.53;;;1.90;99.90;;;;;;5048001;28;20107;-66
2022/01/10 03:36:07;;;;;;;13.40;4.57;;;1.90;99.90;;;;;;5048192;28;20072;-67
2022/01/10 03:38:34;;;;;;;19.88;5.50;;;1.90;99.90;;;;;;5048140;28;20527;-67
2022/01/10 03:41:00;;;;;;;13.45;4.13;;;1.90;99.90;;;;;;5046709;28;20160;-67
2022/01/10 03:43:27;;;;;;;21.17;4.70;;;2.00;99.90;;;;;;5047625;28;20048;-66
2022/01/10 03:45:55;;;;;;;12.95;4.47;;;2.00;99.90;;;;;;5047985;28;20049;-66
2022/01/10 03:48:22;;;;;;;13.27;5.00;;;2.10;99.90;;;;;;5046392;28;20128;-67
2022/01/10 03:50:49;;;;;;;15.20;3.88;;;2.00;99.90;;;;;;5047703;28;20079;-67
2022/01/10 03:53:15;;;;;;;20.92;4.65;;;2.10;99.90;;;;;;5047908;28;20044;-67
2022/01/10 03:55:42;;;;;;;10.98;4.45;;;2.10;99.90;;;;;;5048170;28;20103;-67
2022/01/10 03:58:10;;;;;;;14.68;4.07;;;2.10;99.90;;;;;;5048888;28;20562;-67
2022/01/10 04:00:37;;;;;;;15.63;3.53;;;2.10;99.90;;;;;;5047997;28;20114;-67
2022/01/10 04:03:06;;;;;;;27.02;4.22;;;2.10;99.90;;;;;;5039205;28;20051;-66
2022/01/10 04:05:34;;;;;;;8.32;4.97;;;2.20;99.90;;;;;;5027984;28;20046;-67
2022/01/10 04:08:01;;;;;;;14.13;4.32;;;2.20;99.90;;;;;;5046678;28;20084;-66
2022/01/10 04:10:28;;;;;;;18.13;6.80;;;2.20;99.90;;;;;;5047801;28;20068;-67
2022/01/10 04:12:55;;;;;;;12.93;4.03;;;2.20;99.90;;;;;;5047440;28;20500;-66
2022/01/10 04:15:22;;;;;;;10.85;4.22;;;2.30;99.90;;;;;;5047782;28;20114;-67
2022/01/10 04:17:55;;;;;;;13.68;4.70;;;2.30;99.90;;;;;;5047206;28;20084;-67
2022/01/10 04:20:23;;;;;;;15.50;3.92;;;2.30;99.90;;;;;;5028310;28;20042;-66
2022/01/10 04:22:50;;;;;;;14.15;4.50;;;2.30;99.90;;;;;;5041261;28;20057;-68
2022/01/10 04:25:17;;;;;;;12.02;3.70;;;2.30;99.90;;;;;;5047590;28;20128;-67
2022/01/10 04:27:43;;;;;;;14.63;3.65;;;2.40;99.90;;;;;;5050206;28;20088;-66
2022/01/10 04:30:10;;;;;;;9.73;3.33;;;2.40;99.90;;;;;;5050212;28;20076;-66
2022/01/10 04:32:38;;;;;;;13.93;4.75;;;2.40;99.90;;;;;;5049824;28;20080;-66
2022/01/10 04:35:06;;;;;;;14.52;3.65;;;2.50;99.90;;;;;;5051536;28;20103;-67
2022/01/10 04:37:32;;;;;;;25.02;4.80;;;2.50;99.90;;;;;;5050007;28;20081;-68
2022/01/10 04:39:59;;;;;;;12.68;3.10;;;2.50;99.90;;;;;;5051575;28;20053;-67
2022/01/10 04:42:26;;;;;;;10.55;3.67;;;2.50;99.90;;;;;;5052139;28;20056;-66
2022/01/10 04:44:53;;;;;;;18.08;4.35;;;2.60;99.90;;;;;;5053573;28;20077;-66
2022/01/10 04:47:19;;;;;;;12.57;3.88;;;2.50;99.90;;;;;;5053583;28;20098;-67
2022/01/10 04:52:26;;;;;;;12.18;3.90;;;2.60;99.90;;;;;;5050785;28;20059;-66
2022/01/10 04:54:53;;;;;;;9.15;3.15;;;2.60;99.90;;;;;;5051528;28;20049;-65
2022/01/10 04:57:19;;;;;;;16.20;4.15;;;2.70;99.90;;;;;;5050851;28;20068;-66
2022/01/10 04:59:46;;;;;;;18.20;6.47;;;2.60;99.90;;;;;;5050530;28;20045;-66
2022/01/10 05:02:13;;;;;;;10.40;3.72;;;2.70;99.90;;;;;;5051204;28;20093;-66
2022/01/10 05:04:40;;;;;;;14.10;4.70;;;2.70;99.90;;;;;;5050455;28;20500;-66
2022/01/10 05:07:08;;;;;;;14.40;4.32;;;2.80;99.90;;;;;;5051058;28;20396;-65
2022/01/10 05:09:34;;;;;;;16.52;5.80;;;2.80;99.90;;;;;;5050561;28;20045;-66
2022/01/10 05:12:01;;;;;;;14.07;4.60;;;2.80;99.90;;;;;;5030844;28;20112;-66
2022/01/10 05:14:28;;;;;;;13.05;3.63;;;2.80;99.90;;;;;;5044742;28;20084;-65
2022/01/10 05:16:55;;;;;;;18.67;3.80;;;2.80;99.90;;;;;;5050739;28;20231;-66
2022/01/10 05:19:22;;;;;;;14.82;5.20;;;2.80;99.90;;;;;;5050205;28;20073;-65
2022/01/10 05:21:49;;;;;;;21.33;4.70;;;2.80;99.90;;;;;;5050668;28;20049;-65
2022/01/10 05:24:15;;;;;;;14.10;3.95;;;2.80;99.90;;;;;;5050421;28;20044;-66
2022/01/10 05:26:42;;;;;;;10.10;3.83;;;2.80;99.90;;;;;;5050845;28;20080;-66
2022/01/10 05:29:09;;;;;;;17.33;3.88;;;2.90;99.90;;;;;;5050912;28;20076;-66
2022/01/10 05:31:36;;;;;;;13.85;3.47;;;2.90;99.90;;;;;;5050539;28;20531;-66
2022/01/10 05:34:03;;;;;;;8.80;3.92;;;2.90;99.90;;;;;;5050270;28;20484;-66
2022/01/10 05:36:29;;;;;;;18.13;3.88;;;2.90;99.90;;;;;;5050315;28;20045;-67
2022/01/10 05:38:56;;;;;;;21.83;4.45;;;2.90;99.90;;;;;;5049549;28;20091;-66
2022/01/10 05:41:24;;;;;;;9.13;3.63;;;2.80;99.90;;;;;;5043123;28;20037;-66
2022/01/10 05:43:51;;;;;;;13.23;4.22;;;2.80;99.90;;;;;;5069493;28;20209;-65
2022/01/10 05:46:21;;;;;;;11.52;3.95;;;2.80;99.90;;;;;;5049282;28;20136;-66
2022/01/10 05:48:52;;;;;;;12.88;3.75;;;2.80;99.90;;;;;;5050161;28;20107;-65
2022/01/10 05:51:19;;;;;;;10.75;4.25;;;2.90;99.90;;;;;;5048034;28;20052;-66
2022/01/10 05:53:47;;;;;;;15.70;4.20;;;3.00;99.90;;;;;;5050275;28;20111;-67
2022/01/10 05:56:15;;;;;;;12.35;4.55;;;3.00;99.90;;;;;;5049593;28;20084;-66
2022/01/10 05:58:42;;;;;;;11.32;3.45;;;3.20;99.90;;;;;;5048838;28;20049;-66
2022/01/10 06:01:08;;;;;;;15.32;4.80;;;3.00;99.90;;;;;;5049869;28;20647;-66
2022/01/10 06:03:35;;;;;;;14.80;3.72;;;3.10;99.90;;;;;;5049745;28;20079;-66
2022/01/10 06:06:02;;;;;;;11.65;3.80;;;3.10;99.90;;;;;;5049588;28;20041;-66
2022/01/10 06:08:29;;;;;;;13.95;4.05;;;3.10;99.90;;;;;;5049809;28;20091;-66
2022/01/10 06:10:56;;;;;;;8.43;4.13;;;3.30;99.90;;;;;;5049656;28;20118;-65
2022/01/10 06:13:23;;;;;;;14.45;3.88;;;3.10;99.90;;;;;;5048314;28;20523;-66
2022/01/10 06:15:51;;;;;;;23.88;4.22;;;3.10;99.90;;;;;;5049475;28;20075;-66
2022/01/10 06:18:18;;;;;;;12.10;3.65;;;3.20;99.90;;;;;;5049088;28;20056;-66
2022/01/10 06:20:45;;;;;;;11.88;3.78;;;3.20;99.90;;;;;;5048047;28;20095;-66
2022/01/10 06:23:12;;;;;;;13.10;4.40;;;3.70;99.90;;;;;;5049734;28;20049;-65
2022/01/10 06:25:39;;;;;;;18.35;4.68;;;3.20;99.90;;;;;;5049246;28;20049;-67
2022/01/10 06:28:06;;;;;;;17.15;4.32;;;3.20;99.90;;;;;;5049504;28;20106;-66
2022/01/10 06:30:33;;;;;;;14.25;3.92;;;3.30;99.90;;;;;;5048901;28;20472;-67
2022/01/10 06:33:00;;;;;;;12.60;4.25;;;3.30;99.90;;;;;;5045220;28;20099;-65
2022/01/10 06:35:31;;;;;;;17.52;4.10;;;3.30;99.90;;;;;;5048441;28;20045;-65
2022/01/10 06:37:58;;;;;;;15.45;5.20;;;3.30;99.90;;;;;;5048668;28;20655;-66
2022/01/10 06:40:25;;;;;;;14.88;4.45;;;3.30;99.90;;;;;;5047367;28;20048;-66
2022/01/10 06:42:52;;;;;;;12.07;4.25;;;3.30;99.90;;;;;;5048288;28;20044;-65
2022/01/10 06:45:19;;;;;;;12.27;4.38;;;3.40;99.90;;;;;;5048569;28;20489;-67
2022/01/10 06:47:45;;;;;;;21.85;4.30;;;3.60;99.90;;;;;;5045367;28;20058;-67
2022/01/10 06:50:13;;;;;;;11.10;4.22;;;3.60;99.90;;;;;;5047222;28;20053;-67
2022/01/10 06:52:40;;;;;;;14.80;3.65;;;3.40;99.90;;;;;;5048605;28;20059;-66
2022/01/10 06:55:07;;;;;;;19.33;3.92;;;3.40;99.90;;;;;;5048764;28;20052;-68
2022/01/10 06:57:34;;;;;;;18.38;5.72;;;3.40;99.90;;;;;;5048458;28;20049;-67
2022/01/10 07:00:02;;;;;;;14.45;4.97;;;3.40;99.90;;;;;;5048989;28;20048;-65
2022/01/10 07:02:29;;;;;;;16.08;4.43;;;3.50;99.90;;;;;;5047312;28;20041;-66
2022/01/10 07:04:56;;;;;;;16.55;4.57;;;3.50;99.90;;;;;;5048204;28;20516;-66
2022/01/10 07:07:23;;;;;;;14.10;4.32;;;3.50;99.90;;;;;;5048338;28;20044;-67
2022/01/10 07:09:50;;;;;;;14.60;5.45;;;3.50;99.90;;;;;;5048736;28;20092;-68
2022/01/10 07:12:17;;;;;;;21.85;5.95;;;3.50;99.90;;;;;;5048038;28;20084;-68
2022/01/10 07:14:43;;;;;;;10.35;4.55;;;3.60;99.90;;;;;;5047854;28;20546;-70
2022/01/10 07:17:11;;;;;;;9.90;4.13;;;3.70;99.90;;;;;;5048099;28;20115;-68
2022/01/10 07:19:40;;;;;;;13.82;3.85;;;3.60;99.90;;;;;;5047533;28;20052;-69
2022/01/10 07:22:08;;;;;;;16.85;5.35;;;3.60;99.90;;;;;;5046910;28;20040;-67
2022/01/10 07:24:37;;;;;;;19.05;6.47;;;3.60;99.90;;;;;;5048956;28;20049;-67
2022/01/10 07:27:04;;;;;;;14.07;3.95;;;3.70;99.90;;;;;;5051366;28;20064;-63
2022/01/10 07:29:30;;;;;;;25.60;4.43;;;3.60;99.90;;;;;;5052677;28;20053;-68
2022/01/10 07:31:57;;;;;;;18.50;5.05;;;3.60;99.90;;;;;;5049355;28;20102;-68
2022/01/10 07:34:24;;;;;;;9.52;3.88;;;3.70;99.90;;;;;;5047881;28;20094;-67
2022/01/10 07:36:51;;;;;;;9.75;4.07;;;3.70;99.90;;;;;;5028190;28;20053;-66
2022/01/10 07:39:18;;;;;;;20.27;4.47;;;3.70;99.90;;;;;;5041984;28;20084;-68
2022/01/10 07:41:45;;;;;;;8.60;4.22;;;3.80;99.90;;;;;;5047041;28;20272;-69
2022/01/10 07:44:12;;;;;;;12.45;3.88;;;3.80;99.90;;;;;;5047523;28;20567;-67
2022/01/10 07:46:38;;;;;;;20.48;5.15;;;3.80;99.90;;;;;;5047160;28;20558;-69
2022/01/10 07:49:05;;;;;;;21.02;4.75;;;3.80;99.90;;;;;;5046239;28;20076;-68
2022/01/10 07:51:32;;;;;;;21.73;4.63;;;3.80;99.90;;;;;;5046750;28;20083;-67
2022/01/10 07:53:59;;;;;;;14.05;4.32;;;3.80;99.90;;;;;;5047238;28;20056;-68
2022/01/10 07:56:26;;;;;;;25.05;4.97;;;3.90;99.90;;;;;;5047360;28;20077;-68
2022/01/10 07:58:53;;;;;;;17.45;5.00;;;4.00;99.90;;;;;;5047381;28;20049;-68
2022/01/10 08:01:20;;;;;;;17.25;4.38;;;4.00;99.90;;;;;;5046577;28;20067;-68
2022/01/10 08:03:50;;;;;;;20.23;5.15;;;4.00;99.90;;;;;;5049820;28;20053;-67
2022/01/10 08:06:18;;;;;;;22.98;5.07;;;4.00;99.90;;;;;;5051536;28;20045;-67
2022/01/10 08:08:45;;;;;;;17.98;4.53;;;4.10;99.90;;;;;;5049948;28;20102;-68
2022/01/10 08:11:12;;;;;;;20.60;5.28;;;4.10;99.90;;;;;;5051574;28;20044;-70
2022/01/10 08:13:41;;;;;;;16.45;4.78;;;4.20;99.90;;;;;;5050438;28;20049;-68
2022/01/10 08:16:08;;;;;;;12.85;4.53;;;4.30;99.90;;;;;;5051622;28;20447;-68
2022/01/10 08:18:35;;;;;;;11.45;4.22;;;4.30;99.90;;;;;;5051342;28;20434;-70
2022/01/10 08:21:03;;;;;;;14.30;4.80;;;4.30;99.90;;;;;;5051365;28;20053;-70
2022/01/10 08:23:29;;;;;;;14.20;4.50;;;4.30;99.90;;;;;;5050131;28;20049;-70
2022/01/10 08:25:56;;;;;;;20.13;5.55;;;4.40;99.90;;;;;;5050792;28;20048;-70
2022/01/10 08:28:23;;;;;;;18.30;5.80;;;4.40;99.90;;;;;;5052687;28;20683;-70
2022/01/10 08:30:50;;;;;;;19.08;6.22;;;4.40;99.90;;;;;;5051466;28;20045;-70
2022/01/10 08:33:18;;;;;;;14.25;5.47;;;4.40;99.90;;;;;;5050391;28;20139;-72
2022/01/10 08:35:45;;;;;;;17.35;5.47;;;4.40;99.90;;;;;;5050146;28;20180;-71
2022/01/10 08:38:11;;;;;;;24.50;4.72;;;4.50;99.90;;;;;;5051208;28;20130;-71
2022/01/10 08:40:38;;;;;;;14.57;5.90;;;4.50;99.90;;;;;;5050114;28;20096;-72
2022/01/10 08:43:09;;;;;;;15.52;4.75;;;4.50;99.90;;;;;;5050985;28;20053;-71
2022/01/10 08:45:37;;;;;;;18.42;6.28;;;4.50;99.90;;;;;;5050971;28;20041;-72
2022/01/10 08:48:05;;;;;;;19.50;7.68;;;4.50;99.90;;;;;;5048974;28;20045;-71
2022/01/10 08:50:33;;;;;;;12.45;4.85;;;4.50;99.90;;;;;;5049263;28;20080;-71
2022/01/10 08:53:05;;;;;;;10.52;4.03;;;4.60;99.90;;;;;;5036631;28;20701;-71
2022/01/10 08:55:32;;;;;;;15.82;6.05;;;4.60;99.90;;;;;;5048769;28;20052;-70
2022/01/10 08:57:59;;;;;;;17.05;6.15;;;4.60;99.90;;;;;;5049407;28;20052;-71
2022/01/10 09:00:27;;;;;;;20.80;6.70;;;4.60;99.90;;;;;;5048889;28;20439;-71
2022/01/10 09:02:54;;;;;;;33.38;7.57;;;4.60;99.90;;;;;;5047450;28;20452;-73
2022/01/10 09:05:21;;;;;;;22.75;5.82;;;4.60;99.90;;;;;;5049073;28;20045;-71
2022/01/10 09:07:47;;;;;;;22.13;6.97;;;4.60;99.90;;;;;;5048464;28;20060;-71
2022/01/10 09:10:14;;;;;;;24.70;8.15;;;4.70;99.90;;;;;;5049850;28;20090;-72
2022/01/10 09:12:41;;;;;;;22.17;5.07;;;4.70;99.90;;;;;;5049447;28;20527;-73
2022/01/10 09:15:09;;;;;;;13.80;4.78;;;4.80;99.90;;;;;;5050331;28;20049;-71
2022/01/10 09:17:35;;;;;;;16.33;5.22;;;4.80;99.90;;;;;;5050025;28;20122;-70
2022/01/10 09:20:03;;;;;;;19.48;4.53;;;4.90;99.90;;;;;;5050965;28;20071;-70
2022/01/10 09:22:30;;;;;;;10.95;5.03;;;4.90;99.90;;;;;;5050205;28;20502;-70
2022/01/10 09:24:59;;;;;;;15.73;4.63;;;5.10;99.90;;;;;;5050701;28;20084;-71
2022/01/10 09:27:27;;;;;;;16.63;4.47;;;5.00;99.90;;;;;;5050107;28;20051;-69
2022/01/10 09:29:53;;;;;;;19.17;4.40;;;5.00;99.90;;;;;;5050622;28;20064;-70
2022/01/10 09:32:20;;;;;;;12.73;3.72;;;5.10;99.90;;;;;;5050245;28;20045;-71
2022/01/10 09:34:47;;;;;;;17.30;5.25;;;5.10;99.90;;;;;;5050232;28;20095;-71
2022/01/10 09:37:14;;;;;;;21.05;4.60;;;5.10;99.90;;;;;;5050270;28;20068;-72
2022/01/10 09:39:41;;;;;;;22.48;4.93;;;5.20;99.90;;;;;;5050436;28;20049;-71
2022/01/10 09:42:09;;;;;;;24.48;5.57;;;5.20;99.90;;;;;;5050277;28;20052;-72
2022/01/10 09:44:36;;;;;;;19.20;4.30;;;5.30;99.90;;;;;;5050097;28;20122;-71
2022/01/10 09:47:03;;;;;;;10.32;3.00;;;5.30;99.90;;;;;;5050276;28;20091;-71
2022/01/10 09:49:30;;;;;;;23.52;3.92;;;5.30;99.90;;;;;;5046561;28;20099;-70
2022/01/10 09:51:57;;;;;;;12.48;3.10;;;5.30;99.90;;;;;;5050565;28;20083;-69
2022/01/10 09:54:24;;;;;;;17.23;5.13;;;5.40;99.90;;;;;;5048435;28;20065;-71
2022/01/10 09:56:51;;;;;;;15.80;3.42;;;5.50;99.90;;;;;;5050549;28;20044;-71
2022/01/10 09:59:17;;;;;;;13.85;4.82;;;5.60;99.90;;;;;;5049197;28;20443;-71
2022/01/10 10:01:48;;;;;;;17.08;4.47;;;5.60;99.90;;;;;;5050476;28;20057;-70
2022/01/10 10:04:16;;;;;;;16.58;3.78;;;5.70;99.90;;;;;;5049768;28;20492;-70
2022/01/10 10:06:43;;;;;;;19.00;4.30;;;5.70;99.90;;;;;;5049716;28;20102;-70
2022/01/10 10:09:10;;;;;;;18.10;4.03;;;5.80;99.90;;;;;;5029234;28;20555;-70
2022/01/10 10:11:39;;;;;;;18.58;5.72;;;5.80;99.90;;;;;;5049714;28;20103;-67
2022/01/10 10:14:07;;;;;;;17.63;4.30;;;5.80;99.90;;;;;;5053323;28;20041;-70
2022/01/10 10:16:39;;;;;;;20.60;6.55;;;5.90;99.90;;;;;;5050703;28;20041;-70
2022/01/10 10:19:06;;;;;;;22.98;5.53;;;6.30;99.90;;;;;;5049636;28;20052;-70
2022/01/10 10:21:33;;;;;;;20.95;3.85;;;6.00;99.90;;;;;;5047026;28;20092;-71
2022/01/10 10:24:04;;;;;;;10.38;3.38;;;6.10;99.90;;;;;;4698343;28;10000081;-69
2022/01/10 10:26:31;;;;;;;27.27;5.32;;;6.10;99.90;;;;;;5038135;28;20091;-71
2022/01/10 10:28:58;;;;;;;13.98;3.13;;;6.20;99.90;;;;;;5046168;28;20186;-71
2022/01/10 10:31:36;;;;;;;17.27;5.72;;;6.10;99.90;;;;;;5046162;28;20060;-71
2022/01/10 10:34:04;;;;;;;13.80;3.55;;;6.30;99.90;;;;;;5045686;28;20057;-70
2022/01/10 10:36:33;;;;;;;18.13;5.68;;;6.30;99.90;;;;;;5044706;28;20055;-70
2022/01/10 10:39:01;;;;;;;15.30;3.97;;;6.30;99.90;;;;;;5044680;28;20087;-70
2022/01/10 10:41:27;;;;;;;16.60;4.32;;;6.40;99.90;;;;;;5046273;28;20048;-71
2022/01/10 10:43:54;;;;;;;30.02;6.03;;;6.40;99.90;;;;;;5046137;28;20049;-70
2022/01/10 10:46:26;;;;;;;13.18;4.22;;;6.50;99.90;;;;;;5045377;28;20045;-70
2022/01/10 10:48:57;;;;;;;15.93;4.13;;;6.50;99.90;;;;;;5046219;28;20063;-70
2022/01/10 10:51:29;;;;;;;19.08;3.67;;;6.60;99.90;;;;;;5045727;28;20106;-71
2022/01/10 10:54:01;;;;;;;18.23;3.25;;;6.60;99.90;;;;;;5045606;28;20140;-69
2022/01/10 10:56:32;;;;;;;16.42;4.75;;;6.70;99.90;;;;;;5045321;28;20154;-70
2022/01/10 10:58:59;;;;;;;12.52;2.75;;;6.70;99.90;;;;;;5045611;28;20061;-71
2022/01/10 11:01:26;;;;;;;21.27;4.88;;;6.80;99.90;;;;;;5045523;28;20099;-72
2022/01/10 11:03:54;;;;;;;15.80;3.30;;;6.90;99.90;;;;;;5045684;28;20111;-70
2022/01/10 11:06:21;;;;;;;19.90;3.72;;;6.90;99.90;;;;;;5039099;28;20510;-71
2022/01/10 11:08:48;;;;;;;28.75;4.95;;;6.90;99.90;;;;;;5044491;28;20494;-70
2022/01/10 11:11:21;;;;;;;19.90;4.63;;;7.00;99.90;;;;;;5044698;28;20107;-71
2022/01/10 11:13:49;;;;;;;16.65;3.65;;;7.00;99.90;;;;;;5043429;28;20130;-70
2022/01/10 11:16:17;;;;;;;16.27;4.30;;;7.00;99.90;;;;;;5044351;28;20048;-70
2022/01/10 11:18:44;;;;;;;16.60;4.22;;;7.00;99.90;;;;;;5044637;28;20204;-70
2022/01/10 11:21:11;;;;;;;23.48;4.80;;;7.10;99.90;;;;;;5045221;28;20045;-70
2022/01/10 11:23:39;;;;;;;25.52;6.13;;;7.10;99.90;;;;;;5044142;28;20053;-70
2022/01/10 11:26:07;;;;;;;16.00;3.83;;;7.10;99.90;;;;;;5043688;28;20055;-71
2022/01/10 11:28:34;;;;;;;19.00;3.78;;;7.20;99.90;;;;;;5044043;28;20048;-70
2022/01/10 11:31:03;;;;;;;24.85;5.03;;;7.20;99.90;;;;;;5044809;28;20456;-71
2022/01/10 11:33:35;;;;;;;15.93;3.88;;;7.20;99.90;;;;;;5026399;28;20053;-70
2022/01/10 11:36:10;;;;;;;30.42;5.78;;;7.30;99.90;;;;;;5047461;28;20527;-72
2022/01/10 11:38:45;;;;;;;16.23;4.07;;;7.30;99.90;;;;;;5036026;28;20079;-70
2022/01/10 11:41:31;;;;;;;16.65;3.70;;;7.30;99.90;;;;;;5046648;28;20045;-70
2022/01/10 11:44:12;;;;;;;16.25;4.20;;;7.40;99.90;;;;;;5037865;28;20107;-70
2022/01/10 11:46:47;;;;;;;22.08;3.83;;;7.40;99.90;;;;;;5047886;28;20127;-70
2022/01/10 11:49:15;;;;;;;23.00;3.78;;;7.50;99.90;;;;;;5047970;28;20049;-70
2022/01/10 11:52:00;;;;;;;11.55;3.60;;;7.40;99.90;;;;;;5047395;28;20044;-71
2022/01/10 11:54:38;;;;;;;17.45;3.53;;;7.50;99.90;;;;;;5047276;28;20092;-70
2022/01/10 11:57:09;;;;;;;19.17;6.35;;;7.50;99.90;;;;;;5047288;28;20052;-70
2022/01/10 11:59:37;;;;;;;19.48;4.07;;;7.50;99.90;;;;;;5047758;28;20049;-70
2022/01/10 12:02:09;;;;;;;20.83;5.10;;;7.50;99.90;;;;;;5047150;28;20045;-70
2022/01/10 12:04:39;;;;;;;24.65;4.43;;;7.50;99.90;;;;;;5046376;28;20053;-71
2022/01/10 12:07:07;;;;;;;16.10;4.07;;;7.60;99.90;;;;;;5047282;28;20461;-71
2022/01/10 12:09:34;;;;;;;17.88;3.53;;;7.60;99.90;;;;;;5047081;28;20141;-71
2022/01/10 12:12:07;;;;;;;20.25;4.43;;;7.60;99.90;;;;;;5047282;28;20041;-69
2022/01/10 12:14:34;;;;;;;13.18;4.57;;;7.60;99.90;;;;;;5047002;28;20053;-70
2022/01/10 12:17:01;;;;;;;18.08;4.50;;;7.60;99.90;;;;;;5047167;28;20106;-70
2022/01/10 12:19:28;;;;;;;19.42;5.45;;;7.80;99.90;;;;;;5046978;28;20194;-70
2022/01/10 12:21:54;;;;;;;17.05;4.57;;;7.60;99.90;;;;;;5047452;28;20075;-71
2022/01/10 12:24:21;;;;;;;30.20;5.93;;;7.60;99.90;;;;;;5046593;28;20121;-70
2022/01/10 12:26:48;;;;;;;17.20;4.28;;;7.60;99.90;;;;;;5047341;28;20061;-71
2022/01/10 12:29:18;;;;;;;16.92;4.97;;;7.70;99.90;;;;;;5046945;28;20488;-70
2022/01/10 12:31:46;;;;;;;14.55;3.85;;;7.90;99.90;;;;;;5047318;28;20041;-71
2022/01/10 12:34:13;;;;;;;21.42;7.30;;;7.70;99.90;;;;;;5046675;28;20393;-69
2022/01/10 12:36:41;;;;;;;21.67;4.38;;;7.70;99.90;;;;;;5047037;28;20494;-70
2022/01/10 12:39:11;;;;;;;15.07;4.25;;;7.80;99.90;;;;;;5047275;28;20126;-73
2022/01/10 12:41:38;;;;;;;14.88;5.85;;;7.70;99.90;;;;;;5045908;28;20053;-69
2022/01/10 12:44:05;;;;;;;12.85;4.10;;;7.80;99.90;;;;;;5029466;28;20037;-70
2022/01/10 12:46:33;;;;;;;15.80;3.78;;;7.70;99.90;;;;;;5047058;28;20555;-70
2022/01/10 12:49:04;;;;;;;14.20;3.70;;;7.70;99.90;;;;;;5049763;28;20543;-71
2022/01/10 12:51:43;;;;;;;19.05;4.25;;;7.70;99.90;;;;;;5051504;28;20053;-70
2022/01/10 12:54:12;;;;;;;16.83;4.00;;;7.70;99.90;;;;;;5051639;28;20071;-69
2022/01/10 12:56:39;;;;;;;20.58;3.53;;;7.70;99.90;;;;;;5050683;28;20077;-69
2022/01/10 12:59:06;;;;;;;9.73;3.28;;;7.70;99.90;;;;;;5051739;28;20044;-70
2022/01/10 13:01:33;;;;;;;26.55;5.50;;;7.70;99.90;;;;;;5050942;28;20048;-69